Tuesday, May 22, 2018, 5:56 AM GMT
Back to Local

CYYY, Mont Joli, Que.

Location: , , Canada Lat: 48.6
Local Time: 5:56 AM GMT ( 5:56 GMT) Lon: -68.217
Time Zone: GMT Elev: 157 ft

Show me the last for .
Show Decoded

2018-05-22 05:00 METAR CYYY 220500Z 10004KT 15SM SKC 02/M04 A3008 RMK SLP191 =
2018-05-22 04:00 METAR CYYY 220400Z VRB02KT 15SM SKC 04/M03 A3009 RMK SLP192 =
2018-05-22 03:00 METAR CYYY 220300Z 02005KT 340V060 15SM SKC 06/M04 A3009 RMK SLP194 =
2018-05-22 02:00 METAR CYYY 220200Z 35006KT 15SM SKC 07/M02 A3010 RMK SLP195 =
2018-05-22 01:00 METAR CYYY 220100Z 33005KT 15SM SKC 07/M01 A3007 RMK SLP187 =
2018-05-22 00:00 METAR CYYY 220000Z 36005KT 30SM SKC 07/M01 A3005 RMK SLP180 =
2018-05-21 23:00 METAR CYYY 212300Z 33006KT 15SM SKC 11/M05 A3003 RMK SLP171 =
2018-05-21 22:00 METAR CYYY 212200Z 34007KT 30SM FEW040 11/M04 A3001 RMK CF1 CF TR SLP166 =
2018-05-21 21:00 METAR CYYY 212100Z 33008KT 30SM FEW040 11/M04 A3000 RMK CF1 SLP163 =
2018-05-21 20:00 METAR CYYY 212000Z 31006KT 280V350 30SM FEW040 12/M04 A2999 RMK CF1 CF TR SLP158
                 =
2018-05-21 19:00 METAR CYYY 211900Z 29008KT 30SM FEW040 11/M03 A2998 RMK CF1 CF TR SLP155 =
2018-05-21 18:00 METAR CYYY 211800Z 27011KT 30SM FEW040 11/M03 A2996 RMK CU1 SLP150 =
2018-05-21 17:00 METAR CYYY 211700Z 27013G24KT 30SM FEW040 11/M02 A2995 RMK CU2 SLP144 =
2018-05-21 16:00 METAR CYYY 211600Z 28017G24KT 30SM FEW040 FEW120 11/M03 A2990 RMK CF1AC1 CF TR
                 SLP129 =
2018-05-21 15:00 METAR CYYY 211500Z 27018G23KT 30SM FEW040 SCT140 11/M03 A2988 RMK CF1AC4 CF TR
                 SLP122 =
2018-05-21 14:00 METAR CYYY 211400Z 25021G27KT 30SM FEW040 FEW160 12/M02 A2986 RMK CF1AC2 CF TR
                 SLP116 =
2018-05-21 13:00 METAR CYYY 211300Z 25019G29KT 30SM FEW040 FEW160 11/01 A2986 RMK CF1AC2 CF TR
                 SLP116 =
2018-05-21 12:00 METAR CYYY 211200Z 25019G26KT 30SM FEW040 SCT160 10/M00 A2987 RMK CF1AC4 CF TR
                 SLP117 =
2018-05-21 11:00 METAR CYYY 211100Z 26017KT 30SM FEW040 BKN170 09/M01 A2988 RMK CF1AC5 CF TR
                 SLP120 =
2018-05-21 10:00 METAR CYYY 211000Z 26017G26KT 30SM FEW030 FEW220 09/M00 A2986 RMK SC1CI2 SC TR
                 SLP114 =
2018-05-21 09:00 METAR CYYY 210900Z 23013G19KT 30SM FEW030 FEW220 09/M01 A2984 RMK SC1CI1 SC TR
                 CI TR SLP108 =
2018-05-21 08:00 METAR CYYY 210800Z 23012G19KT 30SM FEW080 09/M01 A2983 RMK AC1 AC TR SLP105 =
2018-05-21 07:00 METAR CYYY 210700Z 21009KT 30SM SCT100 08/M01 A2985 RMK AC4 SLP110 =
2018-05-21 06:00 METAR CYYY 210600Z 22009KT 30SM SCT100 09/M00 A2985 RMK AC4 SLP111 =

Support USWX by starting your Amazon purchase here.